Timeline UpdatesTrip UpdatesNews PostsPvt PostsTravel TipsAdmin PostsConv PostsFollowed PostsChat RequestsBlog PostsPNR Posts

Disclaimer
Search
 
 
Tue Sep 2, 2014 22:15:47 ISTHomeTrainsΣChainsAtlasPNRForumGalleryNewsFAQTripsMembersLoginFeedback
No Recent News for this Train
Other Trains in the News **new
Latest...
Cancelled on 3/8/14
Fri Aug 01, 2014 (08:09PM)
⇐ Return Journey: Train# 58118

58117/Jharsuguda-Gondia Passenger (UnReserved)

OLD Time-Table. Click here to UPDATE TT
Aug 04 2013 (9:25PM)
Change Departure Station:
Change Arrival Station:
Post a Train Travel TipPost a Train Travel Tip **new
Post a Comment/Question/Picture/VideoPost a Comment/Question/Picture/Video
Pantry/Catering
???
RSA - Rake Sharing
Rake/Coach Composition
Loco
News    PNR    Forum    Time-Table    Availability    Fare Chart    Map    Arr/Dep History    Trips    Gallery    ΣChains    X/O    Timeline    
Travel Time: 4h 13m    22 halts    Distance: 190 km    Avg Speed: 45 km/hr
Type: Passenger
Zone: SER/South Eastern
Departs @ 07:15
Platform# ???
SMTWTFS
Jharsuguda Junction/JSG 
Arrives @ 11:28
Platform# ???
SMTWTFS
Jairamnagar/JRMG 

22 halts. 23 intermediate Stations between Jharsuguda Junction and Jairamnagar

Show ALL intermediate Stations  

#CodeStation NameX/OArrivesAvgDepartsAvgHaltPFDay#KmSpeedElevZoneAddress
1JSG»Jharsuguda Junction (5)»  -07:15---10.0108236mSERJharsuguda, Odisha
2IBIbX  07:20-07:21-1m--19.080207mSECRJharsuguda, Odisha
3BRJNBrajrajnagar  07:23-07:25-2m--111.789212mSECRBrajrajnagar, Odisha
4BPHBelpahar  07:31-07:32-1m--120.667235mSECRBelpahar, Odisha
5HGRHimgir  07:44-07:45-1m--134.056275mSECRNational Highway 200, Chhattisgarh
6DAODaghora  07:53-07:54-1m--141.465269mSECRRaigarh, Chhattisgarh
7JMGJamga  08:05-08:06-1m--153.464233mSECRJamga Station, Chhattisgarh
8KRLKotarlia  08:14-08:15-1m--161.939229mSECRRaigarh, Chhattisgarh
9RIGRaigarh (3)O  08:30-09:00-30m--171.772220mSECRRaigarh, Chhattisgarh
10KDTRKirodimalnagar (5)  09:06-09:07-1m--178.861240mSECRRaigarh, Chhattisgarh
11BEFBhupdeopurX  09:16-09:17-1m--188.160243mSECRRaigarh, Chhattisgarh
12ROBRobertsonO  09:26-09:27-1m--197.164239mSECRRaigarh, Chhattisgarh
13KHSKharsiaX  09:35-09:36-1m--1105.652259mSECRNational Highway 200, Chhattisgarh
14JDIJharradihX  09:42-09:44-2m--1110.868247mSECRRaigarh, Chhattisgarh
15SKTSakti (4)X  09:53-09:54-1m--1121.036237mSECRJanjgir-Champa, Chhattisgarh
16JDDAJetha  10:07-10:08-1m--1128.871244mSECRNational Highway 200, Chhattisgarh
17BUABaradwarX  10:14-10:15-1m--1135.956256mSECRJanjgir-Champa, Chhattisgarh
18SGRDSaragaon Road  10:22-10:23-1m--1142.436254mSECRNational Highway 200, Chhattisgarh
19CPHChampa Junction (3)X  10:38-10:43-5m--1151.472264mSECRNational Highway 200 (07819-245767), Chhattisgarh
20NIANailaX  10:52-10:53-1m--1162.248273mSECRJanjgir, Chhattisgarh
21KPNAKapan (1)X  11:02-11:03-1m11169.551263mSECRNational Highway 200, Chhattisgarh
22AKTAkaltara (4)  11:12-11:13-1m--1177.255284mSECRDist. Janjgir Champa, Chhattisgarh
23KTSHKotmi Sonar HaltX  11:20-11:21-1m--1183.657266mSECRKotmisunar, Chhattisgarh
24JRMG•Jairamnagar•  11:28-11:29-1m--1190.335272mSECRNational Highway 200, Chhattisgarh
25GTWGatora  11:42-11:43-1m--1197.98268mSECRBilaspur, Chhattisgarh
26BSPBilaspur Junction (8)X  12:30-13:00-30m--1204.433271mSECRBilaspur, Chhattisgarh
27DPHDadhapara (3)  13:12-13:13-1m--1211.146272mSECRBilaspur, Chhattisgarh
28CHBTChakarbhathaX  13:17-13:18-1m--1214.158285mSECRBilaspur, Chhattisgarh
29BYLBelha  13:24-13:25-1m--1219.966269mSECRCollege Road, Chhattisgarh
30DGSDagoriX  13:32-13:33-1m--1227.655254mSECRCollege Road, Chhattisgarh
31NPINipaniaX  13:42-13:43-1m--1235.980259mSECRNational Highway 200, Chhattisgarh
32BYTBhatapara (4)X  13:54-13:55-1m--1250.677270mSECRBanjari Road, Chhattisgarh
33HNHathbandh  14:07-14:08-1m--1265.946283mSECRRaipur, Chhattisgarh
34TLDTilda (3)  14:22-14:23-1m--1276.661291mSECRBanjari Rd, Chhattisgarh
35BKTHBaikunthXO  14:29-14:30-1m--1282.836287mSECRBanjari Rd, Chhattisgarh
36SLHSiliariX  14:44-14:45-1m--1291.141280mSECRBanjari Rd, Chhattisgarh
37MDHMandharX  14:59-15:00-1m--1300.757281mSECRDonde Kalan, Chhattisgarh
38URKUrkura  15:09-15:10-1m--1309.226275mSECRRaipur, Chhattisgarh
39WRCWRS Colony PHXO  15:17-15:18-1m--1312.25286mSECRRaipur, Chhattisgarh
40RRaipur Junction (6)XO  15:50-16:30-40m--1314.827297mSECRRaipur, Chhattisgarh
41SRWNSaraswatinagar (2)X  16:35-16:36-1m--1317.140291mSECRRaipur, Chhattisgarh
42SZBSarona Cabin (2)X  16:42-16:43-1m--1321.162282mSECRRaipur, Chhattisgarh
43KMIKumhari (2)  16:49-16:50-1m--1327.245287mSECRKumhari, Chhattisgarh
44DBECDevbaloda Charoda  17:00-17:01-1m--1334.835310mSECRBhilai, Chhattisgarh
45BIABhilai (2)X  17:07-17:08-1m--1338.246309mSECRBhilai, Chhattisgarh
46BPHBBhilai Power House (3)X  17:14-17:15-1m--1342.830312mSECRBhilai, Chhattisgarh
47BQRBhilai Nagar (2)  17:24-17:25-1m--1347.314298mSECRBhilai, Chhattisgarh
48DURGDurg Junction (6)X  17:45-17:50-5m--1351.880299mSECRPh: 91-788-2322059, Chhattisgarh
49RSMRasmaraX  17:56-17:57-1m--1359.875292mSECRRasmada, Chhattisgarh
50MUPMurhipar  18:03-18:04-1m--1367.360319mSECRRajnandgaon, Chhattisgarh
51PMSParmalkasaX  18:11-18:12-1m--1374.359300mSECRRajnandgaon, Chhattisgarh
52RJNRaj Nandgaon (3)  18:20-18:22-2m--1382.290313mSECRRajnandgaon, Chhattisgarh
53BAKLBakal  18:29-18:30-1m--1392.867315mSECRRajnandgaon, Chhattisgarh
54MUAMusraXO  18:37-18:38-1m--1400.666325mSECRRajnandgaon, Chhattisgarh
55JTRJatkanhar  18:44-18:45-1m--1407.239330mSECRRajnandgaon, Chhattisgarh
56DGGDongargarh (2)X  18:55-19:05-10m--1413.866353mSECRDongargarh, Chhattisgarh
57PJBPaniajob (2)  19:12-19:13-1m--1421.553398mSECRRajnandgaon, Chhattisgarh
58BTLBortalao (2)  19:23-19:24-1m--1430.366409mSECRRajnandgaon, Chhattisgarh
59DKSDarekasa (2)X  19:31-19:32-1m--1438.053381mSECRRajnandgaon, Chhattisgarh
60SKSSalekasa (2)  19:45-19:46-1m--1449.556312mSECRRajnandgaon, Chhattisgarh
61DNLDhanoli (2)  19:54-19:55-1m--1457.072310mSECRAmgaon, Maharashtra
62AGNAmgaon (2)X  20:01-20:02-1m--1464.244317mSECRGondia, Maharashtra
63GDMGudma (2)  20:17-20:18-1m--1475.112323mSECRGondia, Maharashtra
64GGondia Junction (7)  21:20--21487.0-316mSECRGondia 441601, Maharashtra
Scroll to Top
Scroll to Bottom